Terminal Aerodrome Forecast
Issued by NWS

Home | Current Version | Previous Version | Text Only | Print | Product List | Glossary On
Versions: 1 2 3 4 5 6 7 8 9 10 11 12 13 14 15 16
000
FTAK31 PAJN 241100
TAFAKT
TAF
PAKT 241139Z 2412/2512 33008KT P6SM VCFG OVC012
     FM241700 11007KT P6SM SCT010 SCT100
     FM242100 13008KT P6SM VCSH SCT050 BKN100
     FM250200 33006KT P6SM SCT020 BKN100
     FM250600 33006KT P6SM VCFG BKN020
      AMD LTD TO CLD VIS AND WIND 2412/2415=

USA.gov is the U.S. government's official web portal to all federal, state and local government web resources and services.